Terminal Aerodrome Forecast
Issued by NWS

Home | Current Version | Previous Version | Graphics & Text | Print | Product List | Glossary On
Versions: 1 2 3 4 5 6 7 8 9 10 11 12 13 14 15 16 17 18
385
FTUS42 KMHX 292322
TAFPGV
TAF
KPGV 292322Z 3000/3024 21008KT P6SM SCT030 OVC060
     FM300700 20007KT 5SM BR SCT010 BKN025
     FM301500 21012G24KT P6SM BKN035
     FM302200 19012G22KT 5SM -SHRA BKN030
      AMD LTD TO CLD VIS AND WIND=

USA.gov is the U.S. government's official web portal to all federal, state and local government web resources and services.